sensor_id;sensor_type;location;lat;lon;timestamp;pressure;altitude;pressure_sealevel;temperature;humidity
11523;BME280;40093;43.224;27.910;2022-09-09T00:01:59;100737.50;;;21.82;82.25
11523;BME280;40093;43.224;27.910;2022-09-09T00:04:29;100733.25;;;21.77;82.36
11523;BME280;40093;43.224;27.910;2022-09-09T00:07:03;100731.00;;;21.72;82.67
11523;BME280;40093;43.224;27.910;2022-09-09T00:09:36;100729.44;;;21.71;82.98
11523;BME280;40093;43.224;27.910;2022-09-09T00:12:11;100738.72;;;21.68;82.95
11523;BME280;40093;43.224;27.910;2022-09-09T00:14:43;100724.88;;;21.61;83.20
11523;BME280;40093;43.224;27.910;2022-09-09T00:17:16;100722.66;;;21.56;83.46
11523;BME280;40093;43.224;27.910;2022-09-09T00:19:51;100716.59;;;21.45;84.25
11523;BME280;40093;43.224;27.910;2022-09-09T00:22:23;100714.72;;;21.26;85.51
11523;BME280;40093;43.224;27.910;2022-09-09T00:24:54;100717.31;;;21.33;85.59
11523;BME280;40093;43.224;27.910;2022-09-09T00:27:26;100717.53;;;21.26;85.83
11523;BME280;40093;43.224;27.910;2022-09-09T00:30:00;100702.19;;;21.02;87.38
11523;BME280;40093;43.224;27.910;2022-09-09T00:32:29;100716.25;;;21.15;87.42
11523;BME280;40093;43.224;27.910;2022-09-09T00:35:02;100714.03;;;21.22;86.96
11523;BME280;40093;43.224;27.910;2022-09-09T00:37:31;100717.88;;;21.28;86.16
11523;BME280;40093;43.224;27.910;2022-09-09T00:40:08;100719.34;;;21.33;85.81
11523;BME280;40093;43.224;27.910;2022-09-09T00:42:44;100715.22;;;21.37;85.72
11523;BME280;40093;43.224;27.910;2022-09-09T00:45:23;100709.38;;;21.44;85.50
11523;BME280;40093;43.224;27.910;2022-09-09T00:47:56;100717.25;;;21.49;85.05
11523;BME280;40093;43.224;27.910;2022-09-09T00:50:39;100719.50;;;21.54;84.69
11523;BME280;40093;43.224;27.910;2022-09-09T00:53:19;100702.34;;;21.52;84.32
11523;BME280;40093;43.224;27.910;2022-09-09T00:55:57;100698.19;;;21.44;85.09
11523;BME280;40093;43.224;27.910;2022-09-09T00:58:28;100703.44;;;21.42;84.77
11523;BME280;40093;43.224;27.910;2022-09-09T01:00:59;100692.09;;;21.21;85.95
11523;BME280;40093;43.224;27.910;2022-09-09T01:03:33;100700.91;;;21.19;86.53
11523;BME280;40093;43.224;27.910;2022-09-09T01:06:11;100711.78;;;21.17;86.89
11523;BME280;40093;43.224;27.910;2022-09-09T01:09:10;100705.00;;;21.02;87.44
11523;BME280;40093;43.224;27.910;2022-09-09T01:11:52;100692.28;;;20.69;90.02
11523;BME280;40093;43.224;27.910;2022-09-09T01:14:37;100691.13;;;20.83;89.86
11523;BME280;40093;43.224;27.910;2022-09-09T01:17:11;100692.09;;;20.92;89.18
11523;BME280;40093;43.224;27.910;2022-09-09T01:19:48;100692.44;;;20.94;88.82
11523;BME280;40093;43.224;27.910;2022-09-09T01:22:22;100698.38;;;20.96;88.96
11523;BME280;40093;43.224;27.910;2022-09-09T01:25:15;100704.41;;;20.95;88.92
11523;BME280;40093;43.224;27.910;2022-09-09T01:27:48;100701.19;;;20.96;88.68
11523;BME280;40093;43.224;27.910;2022-09-09T01:30:17;100703.97;;;20.96;89.23
11523;BME280;40093;43.224;27.910;2022-09-09T01:32:46;100706.34;;;20.98;89.05
11523;BME280;40093;43.224;27.910;2022-09-09T01:35:21;100706.78;;;20.96;89.49
11523;BME280;40093;43.224;27.910;2022-09-09T01:37:51;100702.84;;;20.94;89.76
11523;BME280;40093;43.224;27.910;2022-09-09T01:40:18;100696.47;;;20.93;90.38
11523;BME280;40093;43.224;27.910;2022-09-09T01:42:47;100698.38;;;20.96;90.60
11523;BME280;40093;43.224;27.910;2022-09-09T01:45:14;100696.47;;;20.93;91.08
11523;BME280;40093;43.224;27.910;2022-09-09T01:47:42;100697.25;;;20.94;91.26
11523;BME280;40093;43.224;27.910;2022-09-09T01:50:10;100696.47;;;20.93;90.80
11523;BME280;40093;43.224;27.910;2022-09-09T01:52:39;100676.56;;;20.59;92.89
11523;BME280;40093;43.224;27.910;2022-09-09T01:55:08;100690.19;;;20.57;94.48
11523;BME280;40093;43.224;27.910;2022-09-09T01:57:39;100690.38;;;20.66;94.58
11523;BME280;40093;43.224;27.910;2022-09-09T02:00:13;100701.03;;;20.71;95.06
11523;BME280;40093;43.224;27.910;2022-09-09T02:02:49;100696.03;;;20.79;94.29
11523;BME280;40093;43.224;27.910;2022-09-09T02:05:30;100699.03;;;20.88;94.15
11523;BME280;40093;43.224;27.910;2022-09-09T02:08:06;100705.66;;;20.78;93.74
11523;BME280;40093;43.224;27.910;2022-09-09T02:10:42;100713.25;;;20.93;93.65
11523;BME280;40093;43.224;27.910;2022-09-09T02:13:14;100710.34;;;20.97;93.11
11523;BME280;40093;43.224;27.910;2022-09-09T02:15:47;100633.16;;;20.55;92.94
11523;BME280;40093;43.224;27.910;2022-09-09T02:18:24;100710.78;;;20.95;92.68
11523;BME280;40093;43.224;27.910;2022-09-09T02:20:53;100689.22;;;20.64;94.79
11523;BME280;40093;43.224;27.910;2022-09-09T02:23:21;100689.22;;;20.64;95.31
11523;BME280;40093;43.224;27.910;2022-09-09T02:25:49;100703.19;;;20.80;95.29
11523;BME280;40093;43.224;27.910;2022-09-09T02:28:21;100705.03;;;20.70;96.45
11523;BME280;40093;43.224;27.910;2022-09-09T02:30:51;100697.19;;;20.65;96.36
11523;BME280;40093;43.224;27.910;2022-09-09T02:33:24;100705.16;;;20.67;96.69
11523;BME280;40093;43.224;27.910;2022-09-09T02:35:52;100703.84;;;20.55;98.40
11523;BME280;40093;43.224;27.910;2022-09-09T02:38:24;100686.72;;;20.37;100.00
11523;BME280;40093;43.224;27.910;2022-09-09T02:40:54;100682.88;;;20.16;100.00
11523;BME280;40093;43.224;27.910;2022-09-09T02:43:21;100702.78;;;20.33;100.00
11523;BME280;40093;43.224;27.910;2022-09-09T02:45:59;100702.97;;;20.42;100.00
11523;BME280;40093;43.224;27.910;2022-09-09T02:48:33;100704.00;;;20.48;100.00
11523;BME280;40093;43.224;27.910;2022-09-09T02:51:08;100697.22;;;20.33;100.00
11523;BME280;40093;43.224;27.910;2022-09-09T02:53:44;100699.47;;;20.38;100.00
11523;BME280;40093;43.224;27.910;2022-09-09T02:56:16;100673.78;;;20.27;100.00
11523;BME280;40093;43.224;27.910;2022-09-09T02:58:44;100702.34;;;20.51;100.00
11523;BME280;40093;43.224;27.910;2022-09-09T03:01:14;100696.16;;;20.43;100.00
11523;BME280;40093;43.224;27.910;2022-09-09T03:03:42;100664.19;;;20.13;100.00
11523;BME280;40093;43.224;27.910;2022-09-09T03:06:10;100701.84;;;20.40;100.00
11523;BME280;40093;43.224;27.910;2022-09-09T03:08:42;100693.03;;;20.41;100.00
11523;BME280;40093;43.224;27.910;2022-09-09T03:11:09;100671.00;;;20.12;100.00
11523;BME280;40093;43.224;27.910;2022-09-09T03:13:37;100698.09;;;20.31;100.00
11523;BME280;40093;43.224;27.910;2022-09-09T03:16:05;100705.69;;;20.30;100.00
11523;BME280;40093;43.224;27.910;2022-09-09T03:18:34;100699.66;;;20.32;100.00
11523;BME280;40093;43.224;27.910;2022-09-09T03:21:01;100707.50;;;20.36;100.00
11523;BME280;40093;43.224;27.910;2022-09-09T03:23:28;100710.31;;;20.36;100.00
11523;BME280;40093;43.224;27.910;2022-09-09T03:25:56;100707.50;;;20.36;100.00
11523;BME280;40093;43.224;27.910;2022-09-09T03:28:24;100701.06;;;20.08;100.00
11523;BME280;40093;43.224;27.910;2022-09-09T03:30:59;100709.91;;;20.03;100.00
11523;BME280;40093;43.224;27.910;2022-09-09T03:33:26;100687.28;;;19.81;100.00
11523;BME280;40093;43.224;27.910;2022-09-09T03:35:56;100706.75;;;20.01;100.00
11523;BME280;40093;43.224;27.910;2022-09-09T03:38:24;100705.03;;;20.07;100.00
11523;BME280;40093;43.224;27.910;2022-09-09T03:40:55;100706.50;;;19.95;100.00
11523;BME280;40093;43.224;27.910;2022-09-09T03:43:23;100700.63;;;19.90;100.00
11523;BME280;40093;43.224;27.910;2022-09-09T03:45:51;100704.59;;;19.92;100.00
11523;BME280;40093;43.224;27.910;2022-09-09T03:48:18;100705.19;;;20.00;100.00
11523;BME280;40093;43.224;27.910;2022-09-09T03:50:48;100705.84;;;20.07;100.00
11523;BME280;40093;43.224;27.910;2022-09-09T03:53:19;100708.13;;;19.77;100.00
11523;BME280;40093;43.224;27.910;2022-09-09T03:55:48;100703.38;;;19.74;100.00
11523;BME280;40093;43.224;27.910;2022-09-09T03:58:20;100703.34;;;19.93;100.00
11523;BME280;40093;43.224;27.910;2022-09-09T04:00:54;100703.50;;;20.22;100.00
11523;BME280;40093;43.224;27.910;2022-09-09T04:03:21;100701.38;;;20.57;100.00
11523;BME280;40093;43.224;27.910;2022-09-09T04:05:50;100693.91;;;20.99;100.00
11523;BME280;40093;43.224;27.910;2022-09-09T04:08:21;100688.88;;;21.35;100.00
11523;BME280;40093;43.224;27.910;2022-09-09T04:10:51;100711.31;;;21.60;100.00
11523;BME280;40093;43.224;27.910;2022-09-09T04:13:19;100716.69;;;21.83;100.00
11523;BME280;40093;43.224;27.910;2022-09-09T04:15:50;100713.53;;;22.18;98.78
11523;BME280;40093;43.224;27.910;2022-09-09T04:18:18;100702.75;;;22.29;97.36
11523;BME280;40093;43.224;27.910;2022-09-09T04:20:47;100676.00;;;22.62;93.87
11523;BME280;40093;43.224;27.910;2022-09-09T04:23:14;100717.25;;;23.42;89.32
11523;BME280;40093;43.224;27.910;2022-09-09T04:25:45;100720.88;;;23.73;85.62
11523;BME280;40093;43.224;27.910;2022-09-09T04:28:12;100703.22;;;23.94;84.65
11523;BME280;40093;43.224;27.910;2022-09-09T04:30:39;100705.91;;;24.46;81.67
11523;BME280;40093;43.224;27.910;2022-09-09T04:33:07;100716.63;;;24.78;78.97
11523;BME280;40093;43.224;27.910;2022-09-09T04:35:35;100714.59;;;24.87;76.80
11523;BME280;40093;43.224;27.910;2022-09-09T04:38:02;100716.44;;;24.63;77.94
11523;BME280;40093;43.224;27.910;2022-09-09T04:40:32;100727.22;;;24.56;78.30
11523;BME280;40093;43.224;27.910;2022-09-09T04:43:02;100724.81;;;25.30;75.77
11523;BME280;40093;43.224;27.910;2022-09-09T04:45:30;100721.25;;;25.79;72.99
11523;BME280;40093;43.224;27.910;2022-09-09T04:47:58;100724.38;;;25.81;71.64
11523;BME280;40093;43.224;27.910;2022-09-09T04:50:25;100711.16;;;26.14;70.64
11523;BME280;40093;43.224;27.910;2022-09-09T04:52:53;100714.00;;;26.70;68.37
11523;BME280;40093;43.224;27.910;2022-09-09T04:55:20;100713.13;;;27.02;66.08
11523;BME280;40093;43.224;27.910;2022-09-09T04:57:47;100719.78;;;27.52;63.93
11523;BME280;40093;43.224;27.910;2022-09-09T05:00:17;100720.09;;;27.83;62.39
11523;BME280;40093;43.224;27.910;2022-09-09T05:02:45;100716.97;;;27.95;61.93
11523;BME280;40093;43.224;27.910;2022-09-09T05:05:13;100721.59;;;28.27;61.39
11523;BME280;40093;43.224;27.910;2022-09-09T05:07:43;100727.91;;;28.51;60.17
11523;BME280;40093;43.224;27.910;2022-09-09T05:10:16;100722.53;;;28.73;59.17
11523;BME280;40093;43.224;27.910;2022-09-09T05:12:52;100707.72;;;28.83;58.61
11523;BME280;40093;43.224;27.910;2022-09-09T05:15:22;100716.41;;;28.94;58.27
11523;BME280;40093;43.224;27.910;2022-09-09T05:17:50;100727.59;;;29.03;57.48
11523;BME280;40093;43.224;27.910;2022-09-09T05:20:18;100725.34;;;29.53;55.92
11523;BME280;40093;43.224;27.910;2022-09-09T05:22:46;100718.56;;;29.70;55.02
11523;BME280;40093;43.224;27.910;2022-09-09T05:25:15;100704.59;;;29.41;55.60
11523;BME280;40093;43.224;27.910;2022-09-09T05:27:44;100707.16;;;29.65;54.49
11523;BME280;40093;43.224;27.910;2022-09-09T05:30:27;100682.53;;;29.51;54.29
11523;BME280;40093;43.224;27.910;2022-09-09T05:33:00;100707.44;;;29.67;54.90
11523;BME280;40093;43.224;27.910;2022-09-09T05:35:27;100685.63;;;29.53;54.05
11523;BME280;40093;43.224;27.910;2022-09-09T05:38:08;100678.38;;;29.77;54.20
11523;BME280;40093;43.224;27.910;2022-09-09T05:40:35;100698.25;;;29.77;53.56
11523;BME280;40093;43.224;27.910;2022-09-09T05:43:02;100707.53;;;29.78;54.22
11523;BME280;40093;43.224;27.910;2022-09-09T05:45:39;100700.16;;;29.91;53.97
11523;BME280;40093;43.224;27.910;2022-09-09T05:48:06;100668.63;;;29.84;54.02
11523;BME280;40093;43.224;27.910;2022-09-09T05:50:36;100693.25;;;30.29;53.33
11523;BME280;40093;43.224;27.910;2022-09-09T05:53:03;100700.56;;;30.41;52.94
11523;BME280;40093;43.224;27.910;2022-09-09T05:55:30;100703.22;;;30.13;53.79
11523;BME280;40093;43.224;27.910;2022-09-09T05:57:57;100704.31;;;29.96;54.49
11523;BME280;40093;43.224;27.910;2022-09-09T06:00:28;100690.44;;;29.98;54.93
11523;BME280;40093;43.224;27.910;2022-09-09T06:02:58;100665.16;;;29.69;55.00
11523;BME280;40093;43.224;27.910;2022-09-09T06:05:26;100692.13;;;29.84;55.77
11523;BME280;40093;43.224;27.910;2022-09-09T06:07:53;100704.25;;;30.16;55.32
11523;BME280;40093;43.224;27.910;2022-09-09T06:10:21;100703.78;;;30.23;54.84
11523;BME280;40093;43.224;27.910;2022-09-09T06:12:48;100699.13;;;30.20;55.37
11523;BME280;40093;43.224;27.910;2022-09-09T06:15:15;100695.78;;;30.21;55.79
11523;BME280;40093;43.224;27.910;2022-09-09T06:17:42;100698.03;;;30.12;56.43
11523;BME280;40093;43.224;27.910;2022-09-09T06:20:14;100697.31;;;29.91;57.57
11523;BME280;40093;43.224;27.910;2022-09-09T06:22:42;100647.34;;;29.43;58.60
11523;BME280;40093;43.224;27.910;2022-09-09T06:25:12;100710.56;;;29.69;58.82
11523;BME280;40093;43.224;27.910;2022-09-09T06:27:39;100705.78;;;29.55;59.72
11523;BME280;40093;43.224;27.910;2022-09-09T06:30:09;100717.00;;;29.44;60.85
11523;BME280;40093;43.224;27.910;2022-09-09T06:32:36;100671.56;;;29.13;60.71
11523;BME280;40093;43.224;27.910;2022-09-09T06:35:07;100706.78;;;29.32;61.94
11523;BME280;40093;43.224;27.910;2022-09-09T06:37:36;100718.84;;;29.27;62.59
11523;BME280;40093;43.224;27.910;2022-09-09T06:40:04;100727.53;;;28.98;63.42
11523;BME280;40093;43.224;27.910;2022-09-09T06:42:33;100721.81;;;28.78;63.81
11523;BME280;40093;43.224;27.910;2022-09-09T06:45:00;100726.06;;;28.88;64.54
11523;BME280;40093;43.224;27.910;2022-09-09T06:47:28;100725.53;;;28.84;64.73
11523;BME280;40093;43.224;27.910;2022-09-09T06:49:58;100738.97;;;28.89;65.19
11523;BME280;40093;43.224;27.910;2022-09-09T06:52:25;100738.03;;;28.92;65.20
11523;BME280;40093;43.224;27.910;2022-09-09T06:54:56;100744.06;;;28.85;65.84
11523;BME280;40093;43.224;27.910;2022-09-09T06:57:25;100739.69;;;28.84;66.15
11523;BME280;40093;43.224;27.910;2022-09-09T06:59:52;100740.22;;;28.68;66.48
11523;BME280;40093;43.224;27.910;2022-09-09T07:02:20;100741.72;;;28.83;67.04
11523;BME280;40093;43.224;27.910;2022-09-09T07:04:47;100705.69;;;28.64;66.61
11523;BME280;40093;43.224;27.910;2022-09-09T07:07:15;100715.59;;;28.54;67.53
11523;BME280;40093;43.224;27.910;2022-09-09T07:09:43;100706.88;;;28.58;67.42
11523;BME280;40093;43.224;27.910;2022-09-09T07:12:12;100725.19;;;28.42;67.98
11523;BME280;40093;43.224;27.910;2022-09-09T07:14:39;100681.09;;;28.21;69.21
11523;BME280;40093;43.224;27.910;2022-09-09T07:17:07;100740.06;;;28.57;69.51
11523;BME280;40093;43.224;27.910;2022-09-09T07:19:34;100751.19;;;28.61;69.71
11523;BME280;40093;43.224;27.910;2022-09-09T07:22:02;100745.97;;;28.54;69.60
11523;BME280;40093;43.224;27.910;2022-09-09T07:24:29;100738.03;;;28.58;70.04
11523;BME280;40093;43.224;27.910;2022-09-09T07:26:58;100733.84;;;28.53;69.96
11523;BME280;40093;43.224;27.910;2022-09-09T07:29:30;100758.88;;;28.40;70.25
11523;BME280;40093;43.224;27.910;2022-09-09T07:31:58;100759.66;;;28.26;71.42
11523;BME280;40093;43.224;27.910;2022-09-09T07:34:25;100707.19;;;28.11;71.63
11523;BME280;40093;43.224;27.910;2022-09-09T07:36:52;100737.50;;;28.39;72.42
11523;BME280;40093;43.224;27.910;2022-09-09T07:39:26;100670.91;;;28.09;72.07
11523;BME280;40093;43.224;27.910;2022-09-09T07:41:55;100715.53;;;28.34;72.52
11523;BME280;40093;43.224;27.910;2022-09-09T07:44:24;100732.56;;;28.54;71.92
11523;BME280;40093;43.224;27.910;2022-09-09T07:46:54;100752.41;;;28.54;70.13
11523;BME280;40093;43.224;27.910;2022-09-09T07:49:21;100740.47;;;28.65;70.06
11523;BME280;40093;43.224;27.910;2022-09-09T07:51:48;100763.63;;;28.83;68.98
11523;BME280;40093;43.224;27.910;2022-09-09T07:54:17;100756.13;;;28.80;69.20
11523;BME280;40093;43.224;27.910;2022-09-09T07:56:46;100720.13;;;28.66;69.71
11523;BME280;40093;43.224;27.910;2022-09-09T07:59:14;100754.13;;;28.86;66.22
11523;BME280;40093;43.224;27.910;2022-09-09T08:01:43;100748.38;;;28.61;66.64
11523;BME280;40093;43.224;27.910;2022-09-09T08:04:14;100741.97;;;28.80;66.85
11523;BME280;40093;43.224;27.910;2022-09-09T08:06:44;100735.31;;;28.83;67.05
11523;BME280;40093;43.224;27.910;2022-09-09T08:09:18;100727.41;;;28.72;64.80
11523;BME280;40093;43.224;27.910;2022-09-09T08:11:46;100740.81;;;28.72;65.88
11523;BME280;40093;43.224;27.910;2022-09-09T08:14:14;100750.59;;;28.71;66.41
11523;BME280;40093;43.224;27.910;2022-09-09T08:16:44;100737.63;;;28.65;58.74
11523;BME280;40093;43.224;27.910;2022-09-09T08:19:14;100703.97;;;28.52;53.71
11523;BME280;40093;43.224;27.910;2022-09-09T08:21:43;100718.69;;;28.56;52.22
11523;BME280;40093;43.224;27.910;2022-09-09T08:24:12;100717.50;;;28.28;49.65
11523;BME280;40093;43.224;27.910;2022-09-09T08:26:42;100714.66;;;28.28;54.37
11523;BME280;40093;43.224;27.910;2022-09-09T08:29:11;100724.47;;;28.47;52.85
11523;BME280;40093;43.224;27.910;2022-09-09T08:31:41;100689.59;;;28.21;56.23
11523;BME280;40093;43.224;27.910;2022-09-09T08:34:14;100718.41;;;28.54;59.51
11523;BME280;40093;43.224;27.910;2022-09-09T08:36:43;100728.91;;;28.48;62.30
11523;BME280;40093;43.224;27.910;2022-09-09T08:39:18;100717.91;;;28.36;64.00
11523;BME280;40093;43.224;27.910;2022-09-09T08:42:15;100702.13;;;28.00;66.15
11523;BME280;40093;43.224;27.910;2022-09-09T08:45:04;100717.63;;;28.05;68.81
11523;BME280;40093;43.224;27.910;2022-09-09T08:47:46;100730.53;;;27.91;67.95
11523;BME280;40093;43.224;27.910;2022-09-09T08:50:22;100706.72;;;27.83;70.61
11523;BME280;40093;43.224;27.910;2022-09-09T08:52:59;100702.25;;;27.77;72.63
11523;BME280;40093;43.224;27.910;2022-09-09T08:55:37;100692.59;;;27.54;73.07
11523;BME280;40093;43.224;27.910;2022-09-09T08:58:13;100699.19;;;27.66;73.45
11523;BME280;40093;43.224;27.910;2022-09-09T09:00:51;100706.22;;;27.70;71.89
11523;BME280;40093;43.224;27.910;2022-09-09T09:03:27;100704.38;;;27.67;73.44
11523;BME280;40093;43.224;27.910;2022-09-09T09:06:04;100678.16;;;27.52;73.91
11523;BME280;40093;43.224;27.910;2022-09-09T09:08:54;100715.56;;;27.47;72.20
11523;BME280;40093;43.224;27.910;2022-09-09T09:11:35;100690.81;;;27.42;71.15
11523;BME280;40093;43.224;27.910;2022-09-09T09:14:10;100678.53;;;27.31;74.38
11523;BME280;40093;43.224;27.910;2022-09-09T09:16:54;100690.63;;;27.31;74.48
11523;BME280;40093;43.224;27.910;2022-09-09T09:19:23;100696.28;;;27.31;73.90
11523;BME280;40093;43.224;27.910;2022-09-09T09:21:58;100675.78;;;27.22;74.79
11523;BME280;40093;43.224;27.910;2022-09-09T09:24:39;100700.06;;;27.28;74.49
11523;BME280;40093;43.224;27.910;2022-09-09T09:27:14;100690.59;;;27.17;73.15
11523;BME280;40093;43.224;27.910;2022-09-09T09:29:44;100675.56;;;26.87;76.33
11523;BME280;40093;43.224;27.910;2022-09-09T09:32:16;100695.22;;;27.05;76.01
11523;BME280;40093;43.224;27.910;2022-09-09T09:34:49;100708.06;;;27.06;75.66
11523;BME280;40093;43.224;27.910;2022-09-09T09:37:23;100723.06;;;26.98;75.90
11523;BME280;40093;43.224;27.910;2022-09-09T09:39:53;100704.91;;;26.90;77.38
11523;BME280;40093;43.224;27.910;2022-09-09T09:42:21;100722.66;;;26.90;77.48
11523;BME280;40093;43.224;27.910;2022-09-09T09:44:49;100710.88;;;27.06;76.67
11523;BME280;40093;43.224;27.910;2022-09-09T09:47:19;100721.22;;;27.09;76.12
11523;BME280;40093;43.224;27.910;2022-09-09T09:49:53;100711.81;;;27.12;74.41
11523;BME280;40093;43.224;27.910;2022-09-09T09:52:24;100703.28;;;27.21;76.20
11523;BME280;40093;43.224;27.910;2022-09-09T09:54:54;100699.75;;;27.26;76.86
11523;BME280;40093;43.224;27.910;2022-09-09T09:57:31;100657.06;;;26.86;76.64
11523;BME280;40093;43.224;27.910;2022-09-09T10:00:14;100689.22;;;27.12;76.70
11523;BME280;40093;43.224;27.910;2022-09-09T10:02:44;100686.25;;;27.07;77.48
11523;BME280;40093;43.224;27.910;2022-09-09T10:05:16;100697.22;;;26.90;77.60
11523;BME280;40093;43.224;27.910;2022-09-09T10:07:45;100684.56;;;26.62;76.91
11523;BME280;40093;43.224;27.910;2022-09-09T10:10:15;100702.75;;;26.85;78.79
11523;BME280;40093;43.224;27.910;2022-09-09T10:13:03;100695.34;;;26.87;77.67
11523;BME280;40093;43.224;27.910;2022-09-09T10:15:38;100679.47;;;26.90;78.71
11523;BME280;40093;43.224;27.910;2022-09-09T10:18:24;100707.38;;;26.73;78.86
11523;BME280;40093;43.224;27.910;2022-09-09T10:21:06;100691.94;;;26.83;79.44
11523;BME280;40093;43.224;27.910;2022-09-09T10:23:50;100686.00;;;26.81;76.72
11523;BME280;40093;43.224;27.910;2022-09-09T10:26:32;100687.06;;;26.84;79.30
11523;BME280;40093;43.224;27.910;2022-09-09T10:29:14;100682.31;;;26.90;79.58
11523;BME280;40093;43.224;27.910;2022-09-09T10:31:51;100694.69;;;26.92;80.21
11523;BME280;40093;43.224;27.910;2022-09-09T10:34:37;100679.66;;;26.86;79.48
11523;BME280;40093;43.224;27.910;2022-09-09T10:37:17;100654.25;;;26.39;81.16
11523;BME280;40093;43.224;27.910;2022-09-09T10:39:56;100684.78;;;26.73;80.64
11523;BME280;40093;43.224;27.910;2022-09-09T10:42:31;100668.03;;;26.70;81.01
11523;BME280;40093;43.224;27.910;2022-09-09T10:45:06;100658.59;;;26.49;82.16
11523;BME280;40093;43.224;27.910;2022-09-09T10:47:56;100696.25;;;26.70;82.11
11523;BME280;40093;43.224;27.910;2022-09-09T10:50:39;100650.59;;;26.48;82.13
11523;BME280;40093;43.224;27.910;2022-09-09T10:53:14;100680.94;;;26.85;80.68
11523;BME280;40093;43.224;27.910;2022-09-09T10:55:48;100685.84;;;26.99;79.91
11523;BME280;40093;43.224;27.910;2022-09-09T10:58:22;100681.16;;;26.96;78.97
11523;BME280;40093;43.224;27.910;2022-09-09T11:00:55;100678.41;;;26.87;79.44
11523;BME280;40093;43.224;27.910;2022-09-09T11:03:27;100674.88;;;26.78;79.74
11523;BME280;40093;43.224;27.910;2022-09-09T11:05:59;100675.28;;;26.85;80.34
11523;BME280;40093;43.224;27.910;2022-09-09T11:08:29;100673.25;;;26.62;81.80
11523;BME280;40093;43.224;27.910;2022-09-09T11:11:03;100679.72;;;26.63;82.17
11523;BME280;40093;43.224;27.910;2022-09-09T11:13:34;100702.88;;;26.67;83.39
11523;BME280;40093;43.224;27.910;2022-09-09T11:16:16;100640.75;;;26.20;83.71
11523;BME280;40093;43.224;27.910;2022-09-09T11:18:46;100676.75;;;26.57;82.70
11523;BME280;40093;43.224;27.910;2022-09-09T11:21:18;100661.22;;;26.29;83.16
11523;BME280;40093;43.224;27.910;2022-09-09T11:23:50;100685.00;;;26.37;85.00
11523;BME280;40093;43.224;27.910;2022-09-09T11:26:30;100688.72;;;26.43;85.25
11523;BME280;40093;43.224;27.910;2022-09-09T11:29:10;100660.69;;;26.40;85.12
11523;BME280;40093;43.224;27.910;2022-09-09T11:31:46;100680.38;;;26.49;84.38
11523;BME280;40093;43.224;27.910;2022-09-09T11:34:35;100676.88;;;26.63;84.12
11523;BME280;40093;43.224;27.910;2022-09-09T11:37:17;100677.69;;;26.54;84.35
11523;BME280;40093;43.224;27.910;2022-09-09T11:40:08;100650.53;;;26.10;84.17
11523;BME280;40093;43.224;27.910;2022-09-09T11:42:38;100673.84;;;26.10;87.66
11523;BME280;40093;43.224;27.910;2022-09-09T11:45:09;100668.63;;;26.18;88.50
11523;BME280;40093;43.224;27.910;2022-09-09T11:47:38;100681.06;;;26.11;88.02
11523;BME280;40093;43.224;27.910;2022-09-09T11:50:10;100639.19;;;25.77;88.23
11523;BME280;40093;43.224;27.910;2022-09-09T11:52:40;100664.16;;;26.02;90.73
11523;BME280;40093;43.224;27.910;2022-09-09T11:55:20;100658.28;;;25.91;90.82
11523;BME280;40093;43.224;27.910;2022-09-09T11:57:58;100635.13;;;25.88;91.65
11523;BME280;40093;43.224;27.910;2022-09-09T12:00:33;100659.16;;;26.06;91.26
11523;BME280;40093;43.224;27.910;2022-09-09T12:03:02;100664.78;;;26.06;93.29
11523;BME280;40093;43.224;27.910;2022-09-09T12:05:37;100655.53;;;26.06;91.69
11523;BME280;40093;43.224;27.910;2022-09-09T12:08:06;100660.25;;;26.09;92.93
11523;BME280;40093;43.224;27.910;2022-09-09T12:10:38;100647.88;;;26.06;92.02
11523;BME280;40093;43.224;27.910;2022-09-09T12:13:18;100634.78;;;25.94;90.25
11523;BME280;40093;43.224;27.910;2022-09-09T12:15:48;100659.47;;;26.08;90.66
11523;BME280;40093;43.224;27.910;2022-09-09T12:18:23;100645.00;;;26.15;90.50
11523;BME280;40093;43.224;27.910;2022-09-09T12:20:57;100636.56;;;26.15;91.84
11523;BME280;40093;43.224;27.910;2022-09-09T12:23:40;100632.16;;;26.14;92.01
11523;BME280;40093;43.224;27.910;2022-09-09T12:26:27;100634.91;;;26.23;91.41
11523;BME280;40093;43.224;27.910;2022-09-09T12:29:03;100613.41;;;26.02;90.30
11523;BME280;40093;43.224;27.910;2022-09-09T12:31:36;100636.03;;;25.93;89.73
11523;BME280;40093;43.224;27.910;2022-09-09T12:34:11;100609.09;;;25.92;88.41
11523;BME280;40093;43.224;27.910;2022-09-09T12:36:44;100624.78;;;25.84;88.63
11523;BME280;40093;43.224;27.910;2022-09-09T12:39:18;100615.13;;;25.68;90.00
11523;BME280;40093;43.224;27.910;2022-09-09T12:41:53;100624.44;;;25.91;89.74
11523;BME280;40093;43.224;27.910;2022-09-09T12:44:25;100638.84;;;25.93;90.25
11523;BME280;40093;43.224;27.910;2022-09-09T12:46:53;100614.63;;;25.87;90.53
11523;BME280;40093;43.224;27.910;2022-09-09T12:49:28;100622.88;;;25.90;90.17
11523;BME280;40093;43.224;27.910;2022-09-09T12:51:56;100613.09;;;26.00;89.63
11523;BME280;40093;43.224;27.910;2022-09-09T12:54:24;100555.31;;;25.64;90.04
11523;BME280;40093;43.224;27.910;2022-09-09T12:56:51;100611.81;;;26.10;89.69
11523;BME280;40093;43.224;27.910;2022-09-09T12:59:37;100613.66;;;26.13;88.56
11523;BME280;40093;43.224;27.910;2022-09-09T13:02:16;100605.78;;;25.94;89.83
11523;BME280;40093;43.224;27.910;2022-09-09T13:04:46;100603.81;;;25.77;91.08